KEED/EED METAR and TAF weather

Enter ICAO airport designator
Station Type Date Time Source
KEED METAR 2021/05/14 13:56 UTC NOAA

KEED 141356Z AUTO 02004KT 10SM CLR 26/M06 A2985 RMK AO2 SLP075 T02561061 TSNO


Station Type Date Time Source
KEED Decoded METAR 2021/05/14 13:56 UTC NOAA

NEEDLES AIRPORT, CA, United States (KEED) 34-46N 114-37W
May 14, 2021 - 09:56 AM EDT / 2021.05.14 1356 UTC
Wind: from the NNE (020 degrees) at 5 MPH (4 KT):0
Visibility: 10 mile(s):0
Sky conditions: clear
Temperature: 78.1 F (25.6 C)
Dew Point: 21.0 F (-6.1 C)
Relative Humidity: 11%
Pressure (altimeter): 29.85 in. Hg (1010 hPa)
ob: KEED 141356Z AUTO 02004KT 10SM CLR 26/M06 A2985 RMK AO2 SLP075 T02561061 TSNO
cycle: 14

Station Type Date Time Source
KEED TAF 2021/05/14 12:22 UTC NOAA

TAF KEED 141120Z 1412/1512 VRB05KT P6SM SKC
FM141900 17011G18KT P6SM SKC
FM150300 23009KT P6SM SKC

Example: see airport list